sensor_id;sensor_type;location;lat;lon;timestamp;P1;durP1;ratioP1;P2;durP2;ratioP2
14342;SDS011;7255;53.596;9.960;2023-09-07T00:01:46;6.65;;;5.50;;
14342;SDS011;7255;53.596;9.960;2023-09-07T00:04:12;5.72;;;5.10;;
14342;SDS011;7255;53.596;9.960;2023-09-07T00:06:39;6.25;;;5.45;;
14342;SDS011;7255;53.596;9.960;2023-09-07T00:09:07;5.53;;;4.80;;
14342;SDS011;7255;53.596;9.960;2023-09-07T00:11:34;7.35;;;5.70;;
14342;SDS011;7255;53.596;9.960;2023-09-07T00:14:00;7.32;;;5.65;;
14342;SDS011;7255;53.596;9.960;2023-09-07T00:16:26;5.87;;;5.37;;
14342;SDS011;7255;53.596;9.960;2023-09-07T00:18:54;7.35;;;5.53;;
14342;SDS011;7255;53.596;9.960;2023-09-07T00:21:20;8.10;;;5.62;;
14342;SDS011;7255;53.596;9.960;2023-09-07T00:23:46;8.77;;;6.03;;
14342;SDS011;7255;53.596;9.960;2023-09-07T00:26:13;7.75;;;5.50;;
14342;SDS011;7255;53.596;9.960;2023-09-07T00:28:39;6.28;;;5.37;;
14342;SDS011;7255;53.596;9.960;2023-09-07T00:31:05;5.75;;;5.15;;
14342;SDS011;7255;53.596;9.960;2023-09-07T00:33:31;8.20;;;5.45;;
14342;SDS011;7255;53.596;9.960;2023-09-07T00:36:00;6.20;;;5.60;;
14342;SDS011;7255;53.596;9.960;2023-09-07T00:38:27;6.18;;;5.57;;
14342;SDS011;7255;53.596;9.960;2023-09-07T00:40:54;9.00;;;5.68;;
14342;SDS011;7255;53.596;9.960;2023-09-07T00:43:20;8.80;;;5.28;;
14342;SDS011;7255;53.596;9.960;2023-09-07T00:45:46;5.47;;;4.97;;
14342;SDS011;7255;53.596;9.960;2023-09-07T00:48:13;5.25;;;4.75;;
14342;SDS011;7255;53.596;9.960;2023-09-07T00:50:41;6.00;;;5.15;;
14342;SDS011;7255;53.596;9.960;2023-09-07T00:53:09;5.28;;;4.78;;
14342;SDS011;7255;53.596;9.960;2023-09-07T00:55:36;6.10;;;5.50;;
14342;SDS011;7255;53.596;9.960;2023-09-07T00:58:03;7.25;;;5.25;;
14342;SDS011;7255;53.596;9.960;2023-09-07T01:00:30;6.25;;;5.35;;
14342;SDS011;7255;53.596;9.960;2023-09-07T01:02:57;6.28;;;5.65;;
14342;SDS011;7255;53.596;9.960;2023-09-07T01:05:24;5.87;;;5.28;;
14342;SDS011;7255;53.596;9.960;2023-09-07T01:07:57;6.00;;;5.12;;
14342;SDS011;7255;53.596;9.960;2023-09-07T01:10:31;5.95;;;4.87;;
14342;SDS011;7255;53.596;9.960;2023-09-07T01:12:57;5.57;;;4.87;;
14342;SDS011;7255;53.596;9.960;2023-09-07T01:15:23;4.90;;;4.50;;
14342;SDS011;7255;53.596;9.960;2023-09-07T01:17:49;6.03;;;5.40;;
14342;SDS011;7255;53.596;9.960;2023-09-07T01:20:17;5.65;;;5.03;;
14342;SDS011;7255;53.596;9.960;2023-09-07T01:22:46;6.07;;;5.47;;
14342;SDS011;7255;53.596;9.960;2023-09-07T01:25:13;6.12;;;5.40;;
14342;SDS011;7255;53.596;9.960;2023-09-07T01:27:39;5.00;;;4.53;;
14342;SDS011;7255;53.596;9.960;2023-09-07T01:30:06;5.53;;;5.00;;
14342;SDS011;7255;53.596;9.960;2023-09-07T01:32:34;5.55;;;5.00;;
14342;SDS011;7255;53.596;9.960;2023-09-07T01:35:01;5.45;;;4.95;;
14342;SDS011;7255;53.596;9.960;2023-09-07T01:37:32;5.65;;;5.00;;
14342;SDS011;7255;53.596;9.960;2023-09-07T01:40:00;5.45;;;4.87;;
14342;SDS011;7255;53.596;9.960;2023-09-07T01:42:29;6.25;;;5.28;;
14342;SDS011;7255;53.596;9.960;2023-09-07T01:50:52;6.43;;;5.30;;
14342;SDS011;7255;53.596;9.960;2023-09-07T01:53:19;5.87;;;5.37;;
14342;SDS011;7255;53.596;9.960;2023-09-07T01:55:47;5.20;;;4.78;;
14342;SDS011;7255;53.596;9.960;2023-09-07T01:58:13;7.20;;;5.80;;
14342;SDS011;7255;53.596;9.960;2023-09-07T02:00:40;5.85;;;5.25;;
14342;SDS011;7255;53.596;9.960;2023-09-07T02:03:06;6.25;;;4.32;;
14342;SDS011;7255;53.596;9.960;2023-09-07T02:05:32;5.80;;;5.22;;
14342;SDS011;7255;53.596;9.960;2023-09-07T02:07:59;5.43;;;5.00;;
14342;SDS011;7255;53.596;9.960;2023-09-07T02:10:25;5.18;;;4.70;;
14342;SDS011;7255;53.596;9.960;2023-09-07T02:12:53;6.82;;;5.22;;
14342;SDS011;7255;53.596;9.960;2023-09-07T02:15:21;5.72;;;5.20;;
14342;SDS011;7255;53.596;9.960;2023-09-07T02:17:48;6.50;;;5.57;;
14342;SDS011;7255;53.596;9.960;2023-09-07T02:20:14;5.87;;;5.12;;
14342;SDS011;7255;53.596;9.960;2023-09-07T02:22:40;5.47;;;4.95;;
14342;SDS011;7255;53.596;9.960;2023-09-07T02:25:07;5.87;;;4.93;;
14342;SDS011;7255;53.596;9.960;2023-09-07T02:27:33;5.93;;;4.97;;
14342;SDS011;7255;53.596;9.960;2023-09-07T02:30:01;6.05;;;5.45;;
14342;SDS011;7255;53.596;9.960;2023-09-07T02:32:28;5.80;;;5.20;;
14342;SDS011;7255;53.596;9.960;2023-09-07T02:34:54;5.85;;;5.20;;
14342;SDS011;7255;53.596;9.960;2023-09-07T02:37:21;5.85;;;5.25;;
14342;SDS011;7255;53.596;9.960;2023-09-07T02:39:47;6.45;;;5.07;;
14342;SDS011;7255;53.596;9.960;2023-09-07T02:42:13;5.75;;;4.80;;
14342;SDS011;7255;53.596;9.960;2023-09-07T02:44:39;6.12;;;5.53;;
14342;SDS011;7255;53.596;9.960;2023-09-07T02:47:07;6.20;;;5.60;;
14342;SDS011;7255;53.596;9.960;2023-09-07T02:49:33;5.65;;;5.07;;
14342;SDS011;7255;53.596;9.960;2023-09-07T02:52:00;5.55;;;5.05;;
14342;SDS011;7255;53.596;9.960;2023-09-07T02:54:26;6.75;;;6.05;;
14342;SDS011;7255;53.596;9.960;2023-09-07T02:56:52;7.70;;;6.20;;
14342;SDS011;7255;53.596;9.960;2023-09-07T02:59:21;5.55;;;4.93;;
14342;SDS011;7255;53.596;9.960;2023-09-07T03:01:53;7.75;;;6.00;;
14342;SDS011;7255;53.596;9.960;2023-09-07T03:04:21;6.03;;;5.43;;
14342;SDS011;7255;53.596;9.960;2023-09-07T03:06:48;6.90;;;5.72;;
14342;SDS011;7255;53.596;9.960;2023-09-07T03:09:14;6.57;;;5.65;;
14342;SDS011;7255;53.596;9.960;2023-09-07T03:11:41;7.18;;;5.30;;
14342;SDS011;7255;53.596;9.960;2023-09-07T03:14:07;5.82;;;5.22;;
14342;SDS011;7255;53.596;9.960;2023-09-07T03:16:33;5.85;;;5.28;;
14342;SDS011;7255;53.596;9.960;2023-09-07T03:19:00;5.55;;;5.05;;
14342;SDS011;7255;53.596;9.960;2023-09-07T03:21:28;8.30;;;5.68;;
14342;SDS011;7255;53.596;9.960;2023-09-07T03:23:54;6.75;;;5.55;;
14342;SDS011;7255;53.596;9.960;2023-09-07T03:26:21;7.20;;;5.82;;
14342;SDS011;7255;53.596;9.960;2023-09-07T03:28:47;6.15;;;5.55;;
14342;SDS011;7255;53.596;9.960;2023-09-07T03:31:13;5.85;;;5.30;;
14342;SDS011;7255;53.596;9.960;2023-09-07T03:33:40;8.70;;;6.03;;
14342;SDS011;7255;53.596;9.960;2023-09-07T03:36:06;5.95;;;5.35;;
14342;SDS011;7255;53.596;9.960;2023-09-07T03:38:35;6.82;;;5.85;;
14342;SDS011;7255;53.596;9.960;2023-09-07T03:41:02;5.97;;;5.37;;
14342;SDS011;7255;53.596;9.960;2023-09-07T03:43:28;5.93;;;5.22;;
14342;SDS011;7255;53.596;9.960;2023-09-07T03:45:54;7.87;;;5.80;;
14342;SDS011;7255;53.596;9.960;2023-09-07T03:48:22;7.45;;;6.68;;
14342;SDS011;7255;53.596;9.960;2023-09-07T03:50:49;6.30;;;5.70;;
14342;SDS011;7255;53.596;9.960;2023-09-07T03:53:15;6.47;;;5.87;;
14342;SDS011;7255;53.596;9.960;2023-09-07T03:55:43;7.28;;;5.75;;
14342;SDS011;7255;53.596;9.960;2023-09-07T03:58:10;6.87;;;5.25;;
14342;SDS011;7255;53.596;9.960;2023-09-07T04:00:38;6.03;;;5.35;;
14342;SDS011;7255;53.596;9.960;2023-09-07T04:03:05;6.40;;;5.47;;
14342;SDS011;7255;53.596;9.960;2023-09-07T04:05:31;6.22;;;5.45;;
14342;SDS011;7255;53.596;9.960;2023-09-07T04:07:58;6.97;;;5.62;;
14342;SDS011;7255;53.596;9.960;2023-09-07T04:10:25;6.75;;;5.78;;
14342;SDS011;7255;53.596;9.960;2023-09-07T04:12:53;6.32;;;5.72;;
14342;SDS011;7255;53.596;9.960;2023-09-07T04:15:20;6.22;;;5.62;;
14342;SDS011;7255;53.596;9.960;2023-09-07T04:17:46;6.32;;;5.72;;
14342;SDS011;7255;53.596;9.960;2023-09-07T04:20:12;6.45;;;5.82;;
14342;SDS011;7255;53.596;9.960;2023-09-07T04:22:38;9.90;;;6.07;;
14342;SDS011;7255;53.596;9.960;2023-09-07T04:25:05;7.05;;;6.32;;
14342;SDS011;7255;53.596;9.960;2023-09-07T04:27:32;6.85;;;6.15;;
14342;SDS011;7255;53.596;9.960;2023-09-07T04:30:00;6.30;;;5.70;;
14342;SDS011;7255;53.596;9.960;2023-09-07T04:32:27;6.15;;;5.55;;
14342;SDS011;7255;53.596;9.960;2023-09-07T04:34:54;9.82;;;6.82;;
14342;SDS011;7255;53.596;9.960;2023-09-07T04:37:21;6.40;;;5.70;;
14342;SDS011;7255;53.596;9.960;2023-09-07T04:39:49;7.10;;;6.40;;
14342;SDS011;7255;53.596;9.960;2023-09-07T04:42:17;8.02;;;6.53;;
14342;SDS011;7255;53.596;9.960;2023-09-07T04:44:43;7.18;;;6.07;;
14342;SDS011;7255;53.596;9.960;2023-09-07T04:47:10;6.28;;;5.68;;
14342;SDS011;7255;53.596;9.960;2023-09-07T04:49:37;6.72;;;6.05;;
14342;SDS011;7255;53.596;9.960;2023-09-07T04:52:03;7.25;;;5.35;;
14342;SDS011;7255;53.596;9.960;2023-09-07T04:54:30;6.53;;;5.80;;
14342;SDS011;7255;53.596;9.960;2023-09-07T04:56:56;6.90;;;6.18;;
14342;SDS011;7255;53.596;9.960;2023-09-07T04:59:23;7.35;;;6.62;;
14342;SDS011;7255;53.596;9.960;2023-09-07T05:01:49;8.00;;;6.93;;
14342;SDS011;7255;53.596;9.960;2023-09-07T05:04:17;7.25;;;6.45;;
14342;SDS011;7255;53.596;9.960;2023-09-07T05:06:43;8.02;;;6.72;;
14342;SDS011;7255;53.596;9.960;2023-09-07T05:09:09;8.68;;;6.53;;
14342;SDS011;7255;53.596;9.960;2023-09-07T05:11:36;7.20;;;5.97;;
14342;SDS011;7255;53.596;9.960;2023-09-07T05:14:02;7.65;;;6.65;;
14342;SDS011;7255;53.596;9.960;2023-09-07T05:16:29;7.07;;;6.37;;
14342;SDS011;7255;53.596;9.960;2023-09-07T05:18:55;7.20;;;6.47;;
14342;SDS011;7255;53.596;9.960;2023-09-07T05:21:23;7.32;;;6.50;;
14342;SDS011;7255;53.596;9.960;2023-09-07T05:23:49;8.05;;;6.87;;
14342;SDS011;7255;53.596;9.960;2023-09-07T05:26:20;6.72;;;6.05;;
14342;SDS011;7255;53.596;9.960;2023-09-07T05:28:47;7.10;;;6.40;;
14342;SDS011;7255;53.596;9.960;2023-09-07T05:31:13;7.03;;;6.25;;
14342;SDS011;7255;53.596;9.960;2023-09-07T05:33:39;7.10;;;6.40;;
14342;SDS011;7255;53.596;9.960;2023-09-07T05:36:06;7.72;;;6.93;;
14342;SDS011;7255;53.596;9.960;2023-09-07T05:38:33;9.20;;;7.20;;
14342;SDS011;7255;53.596;9.960;2023-09-07T05:41:00;12.20;;;7.93;;
14342;SDS011;7255;53.596;9.960;2023-09-07T05:43:26;8.45;;;7.55;;
14342;SDS011;7255;53.596;9.960;2023-09-07T05:45:53;8.43;;;7.32;;
14342;SDS011;7255;53.596;9.960;2023-09-07T05:48:19;13.60;;;8.23;;
14342;SDS011;7255;53.596;9.960;2023-09-07T05:50:45;9.25;;;8.35;;
14342;SDS011;7255;53.596;9.960;2023-09-07T05:53:12;8.82;;;8.00;;
14342;SDS011;7255;53.596;9.960;2023-09-07T05:55:39;8.85;;;7.87;;
14342;SDS011;7255;53.596;9.960;2023-09-07T05:58:06;8.80;;;8.00;;
14342;SDS011;7255;53.596;9.960;2023-09-07T06:00:34;9.88;;;7.68;;
14342;SDS011;7255;53.596;9.960;2023-09-07T06:03:01;8.90;;;7.55;;
14342;SDS011;7255;53.596;9.960;2023-09-07T06:05:28;9.65;;;8.52;;
14342;SDS011;7255;53.596;9.960;2023-09-07T06:07:54;10.18;;;8.68;;
14342;SDS011;7255;53.596;9.960;2023-09-07T06:10:21;13.25;;;9.15;;
14342;SDS011;7255;53.596;9.960;2023-09-07T06:12:48;10.85;;;9.73;;
14342;SDS011;7255;53.596;9.960;2023-09-07T06:15:15;10.93;;;8.15;;
14342;SDS011;7255;53.596;9.960;2023-09-07T06:17:41;12.77;;;8.30;;
14342;SDS011;7255;53.596;9.960;2023-09-07T06:20:08;10.25;;;8.95;;
14342;SDS011;7255;53.596;9.960;2023-09-07T06:22:35;9.75;;;8.75;;
14342;SDS011;7255;53.596;9.960;2023-09-07T06:25:01;9.98;;;8.25;;
14342;SDS011;7255;53.596;9.960;2023-09-07T06:27:27;11.77;;;8.77;;
14342;SDS011;7255;53.596;9.960;2023-09-07T06:29:55;11.80;;;9.57;;
14342;SDS011;7255;53.596;9.960;2023-09-07T06:32:22;10.20;;;9.05;;
14342;SDS011;7255;53.596;9.960;2023-09-07T06:34:48;13.23;;;9.30;;
14342;SDS011;7255;53.596;9.960;2023-09-07T06:37:14;8.77;;;7.87;;
14342;SDS011;7255;53.596;9.960;2023-09-07T06:39:41;9.00;;;7.78;;
14342;SDS011;7255;53.596;9.960;2023-09-07T06:42:08;10.20;;;9.20;;
14342;SDS011;7255;53.596;9.960;2023-09-07T06:44:35;9.43;;;8.43;;
14342;SDS011;7255;53.596;9.960;2023-09-07T06:47:03;13.02;;;9.57;;
14342;SDS011;7255;53.596;9.960;2023-09-07T06:49:30;12.18;;;8.27;;
14342;SDS011;7255;53.596;9.960;2023-09-07T06:51:56;10.90;;;8.07;;
14342;SDS011;7255;53.596;9.960;2023-09-07T06:54:22;8.85;;;7.82;;
14342;SDS011;7255;53.596;9.960;2023-09-07T06:56:49;10.80;;;7.70;;
14342;SDS011;7255;53.596;9.960;2023-09-07T06:59:15;13.15;;;7.55;;
14342;SDS011;7255;53.596;9.960;2023-09-07T07:01:41;9.05;;;7.70;;
14342;SDS011;7255;53.596;9.960;2023-09-07T07:04:09;9.63;;;7.40;;
14342;SDS011;7255;53.596;9.960;2023-09-07T07:06:36;7.90;;;7.18;;
14342;SDS011;7255;53.596;9.960;2023-09-07T07:09:02;6.87;;;6.15;;
14342;SDS011;7255;53.596;9.960;2023-09-07T07:11:29;7.87;;;6.60;;
14342;SDS011;7255;53.596;9.960;2023-09-07T07:13:55;7.68;;;5.80;;
14342;SDS011;7255;53.596;9.960;2023-09-07T07:16:21;6.62;;;6.03;;
14342;SDS011;7255;53.596;9.960;2023-09-07T07:18:48;6.07;;;5.55;;
14342;SDS011;7255;53.596;9.960;2023-09-07T07:21:15;6.12;;;5.53;;
14342;SDS011;7255;53.596;9.960;2023-09-07T07:23:42;6.10;;;5.37;;
14342;SDS011;7255;53.596;9.960;2023-09-07T07:26:08;6.95;;;5.80;;
14342;SDS011;7255;53.596;9.960;2023-09-07T07:28:34;6.00;;;4.22;;
14342;SDS011;7255;53.596;9.960;2023-09-07T07:31:06;6.10;;;5.37;;
14342;SDS011;7255;53.596;9.960;2023-09-07T07:33:33;6.10;;;5.00;;
14342;SDS011;7255;53.596;9.960;2023-09-07T07:35:59;4.85;;;4.45;;
14342;SDS011;7255;53.596;9.960;2023-09-07T07:38:27;6.62;;;4.80;;
14342;SDS011;7255;53.596;9.960;2023-09-07T07:40:53;6.25;;;4.85;;
14342;SDS011;7255;53.596;9.960;2023-09-07T07:43:20;5.03;;;4.18;;
14342;SDS011;7255;53.596;9.960;2023-09-07T07:45:47;6.35;;;4.75;;
14342;SDS011;7255;53.596;9.960;2023-09-07T07:48:13;4.87;;;4.47;;
14342;SDS011;7255;53.596;9.960;2023-09-07T07:50:39;8.35;;;4.22;;
14342;SDS011;7255;53.596;9.960;2023-09-07T07:53:06;6.47;;;4.75;;
14342;SDS011;7255;53.596;9.960;2023-09-07T07:55:35;5.10;;;4.20;;
14342;SDS011;7255;53.596;9.960;2023-09-07T07:58:04;5.25;;;4.28;;
14342;SDS011;7255;53.596;9.960;2023-09-07T08:00:30;4.87;;;4.37;;
14342;SDS011;7255;53.596;9.960;2023-09-07T08:02:57;6.03;;;4.68;;
14342;SDS011;7255;53.596;9.960;2023-09-07T08:05:23;6.68;;;4.32;;
14342;SDS011;7255;53.596;9.960;2023-09-07T08:07:49;4.32;;;4.03;;
14342;SDS011;7255;53.596;9.960;2023-09-07T08:10:18;6.35;;;4.70;;
14342;SDS011;7255;53.596;9.960;2023-09-07T08:12:46;9.38;;;4.28;;
14342;SDS011;7255;53.596;9.960;2023-09-07T08:15:12;5.93;;;4.18;;
14342;SDS011;7255;53.596;9.960;2023-09-07T08:17:39;6.20;;;4.07;;
14342;SDS011;7255;53.596;9.960;2023-09-07T08:20:06;7.62;;;4.72;;
14342;SDS011;7255;53.596;9.960;2023-09-07T08:22:36;5.68;;;4.62;;
14342;SDS011;7255;53.596;9.960;2023-09-07T08:25:06;7.07;;;4.62;;
14342;SDS011;7255;53.596;9.960;2023-09-07T08:27:33;5.47;;;4.28;;
14342;SDS011;7255;53.596;9.960;2023-09-07T08:30:00;5.55;;;4.15;;
14342;SDS011;7255;53.596;9.960;2023-09-07T08:32:28;4.50;;;3.62;;
14342;SDS011;7255;53.596;9.960;2023-09-07T08:34:54;4.18;;;3.78;;
14342;SDS011;7255;53.596;9.960;2023-09-07T08:37:25;5.80;;;4.68;;
14342;SDS011;7255;53.596;9.960;2023-09-07T08:39:53;4.95;;;4.45;;
14342;SDS011;7255;53.596;9.960;2023-09-07T08:42:20;5.03;;;4.40;;
14342;SDS011;7255;53.596;9.960;2023-09-07T08:44:46;4.85;;;3.80;;
14342;SDS011;7255;53.596;9.960;2023-09-07T08:47:18;4.32;;;3.80;;
14342;SDS011;7255;53.596;9.960;2023-09-07T08:49:45;5.60;;;4.15;;
14342;SDS011;7255;53.596;9.960;2023-09-07T08:52:13;3.53;;;3.22;;
14342;SDS011;7255;53.596;9.960;2023-09-07T08:54:41;4.30;;;3.90;;
14342;SDS011;7255;53.596;9.960;2023-09-07T08:57:08;10.57;;;4.75;;
14342;SDS011;7255;53.596;9.960;2023-09-07T08:59:36;6.82;;;3.95;;
14342;SDS011;7255;53.596;9.960;2023-09-07T09:02:03;6.57;;;3.97;;
14342;SDS011;7255;53.596;9.960;2023-09-07T09:04:35;4.72;;;3.80;;
14342;SDS011;7255;53.596;9.960;2023-09-07T09:07:02;5.05;;;4.25;;
14342;SDS011;7255;53.596;9.960;2023-09-07T09:09:29;4.37;;;3.87;;
14342;SDS011;7255;53.596;9.960;2023-09-07T09:12:05;3.97;;;3.58;;
14342;SDS011;7255;53.596;9.960;2023-09-07T09:14:32;4.20;;;3.80;;
14342;SDS011;7255;53.596;9.960;2023-09-07T09:16:58;3.60;;;3.30;;
14342;SDS011;7255;53.596;9.960;2023-09-07T09:19:29;6.70;;;3.85;;
14342;SDS011;7255;53.596;9.960;2023-09-07T09:21:58;4.57;;;3.80;;
14342;SDS011;7255;53.596;9.960;2023-09-07T09:24:25;4.93;;;4.22;;
14342;SDS011;7255;53.596;9.960;2023-09-07T09:26:51;3.50;;;3.20;;
14342;SDS011;7255;53.596;9.960;2023-09-07T09:29:21;3.80;;;3.40;;
14342;SDS011;7255;53.596;9.960;2023-09-07T09:31:47;7.60;;;3.80;;
14342;SDS011;7255;53.596;9.960;2023-09-07T09:34:14;3.92;;;3.45;;
14342;SDS011;7255;53.596;9.960;2023-09-07T09:36:41;3.87;;;3.47;;
14342;SDS011;7255;53.596;9.960;2023-09-07T09:39:10;4.30;;;3.60;;
14342;SDS011;7255;53.596;9.960;2023-09-07T09:41:47;3.90;;;3.60;;
14342;SDS011;7255;53.596;9.960;2023-09-07T09:44:13;3.67;;;3.37;;
14342;SDS011;7255;53.596;9.960;2023-09-07T09:46:42;4.35;;;3.60;;
14342;SDS011;7255;53.596;9.960;2023-09-07T09:49:09;6.85;;;3.60;;
14342;SDS011;7255;53.596;9.960;2023-09-07T09:51:38;3.70;;;2.95;;
14342;SDS011;7255;53.596;9.960;2023-09-07T09:54:05;4.25;;;3.47;;
14342;SDS011;7255;53.596;9.960;2023-09-07T09:56:34;3.78;;;3.47;;
14342;SDS011;7255;53.596;9.960;2023-09-07T09:59:00;3.95;;;3.55;;
14342;SDS011;7255;53.596;9.960;2023-09-07T10:01:26;5.18;;;3.08;;
14342;SDS011;7255;53.596;9.960;2023-09-07T10:03:54;3.83;;;3.40;;
14342;SDS011;7255;53.596;9.960;2023-09-07T10:06:23;3.17;;;2.78;;
14342;SDS011;7255;53.596;9.960;2023-09-07T10:08:55;2.78;;;2.58;;
14342;SDS011;7255;53.596;9.960;2023-09-07T10:11:29;3.78;;;3.08;;
14342;SDS011;7255;53.596;9.960;2023-09-07T10:13:58;3.45;;;2.65;;
14342;SDS011;7255;53.596;9.960;2023-09-07T10:16:24;3.50;;;3.10;;
14342;SDS011;7255;53.596;9.960;2023-09-07T10:18:52;3.37;;;3.08;;
14342;SDS011;7255;53.596;9.960;2023-09-07T10:21:18;3.20;;;2.90;;
14342;SDS011;7255;53.596;9.960;2023-09-07T10:23:45;8.63;;;3.42;;
14342;SDS011;7255;53.596;9.960;2023-09-07T10:26:12;3.60;;;2.83;;
14342;SDS011;7255;53.596;9.960;2023-09-07T10:28:40;3.55;;;3.00;;
14342;SDS011;7255;53.596;9.960;2023-09-07T10:31:15;2.65;;;2.45;;
14342;SDS011;7255;53.596;9.960;2023-09-07T10:33:43;3.70;;;3.00;;
14342;SDS011;7255;53.596;9.960;2023-09-07T10:36:19;5.62;;;3.22;;
14342;SDS011;7255;53.596;9.960;2023-09-07T10:38:47;3.70;;;3.10;;
14342;SDS011;7255;53.596;9.960;2023-09-07T10:41:13;6.70;;;2.90;;
14342;SDS011;7255;53.596;9.960;2023-09-07T10:43:46;4.07;;;3.22;;
14342;SDS011;7255;53.596;9.960;2023-09-07T10:46:14;3.60;;;3.30;;
14342;SDS011;7255;53.596;9.960;2023-09-07T10:48:40;4.03;;;2.78;;
14342;SDS011;7255;53.596;9.960;2023-09-07T10:51:08;3.05;;;2.75;;
14342;SDS011;7255;53.596;9.960;2023-09-07T10:53:34;3.60;;;2.90;;
14342;SDS011;7255;53.596;9.960;2023-09-07T10:56:02;4.75;;;2.85;;
14342;SDS011;7255;53.596;9.960;2023-09-07T10:58:30;3.20;;;2.90;;
14342;SDS011;7255;53.596;9.960;2023-09-07T11:00:58;3.25;;;2.80;;
14342;SDS011;7255;53.596;9.960;2023-09-07T11:03:26;5.53;;;2.90;;
14342;SDS011;7255;53.596;9.960;2023-09-07T11:05:53;3.75;;;3.08;;
14342;SDS011;7255;53.596;9.960;2023-09-07T11:08:23;3.30;;;3.00;;
14342;SDS011;7255;53.596;9.960;2023-09-07T11:10:49;2.95;;;2.65;;
14342;SDS011;7255;53.596;9.960;2023-09-07T11:13:16;2.87;;;2.58;;
14342;SDS011;7255;53.596;9.960;2023-09-07T11:15:43;3.60;;;3.10;;
14342;SDS011;7255;53.596;9.960;2023-09-07T11:18:09;7.43;;;2.78;;
14342;SDS011;7255;53.596;9.960;2023-09-07T11:20:37;5.43;;;2.50;;
14342;SDS011;7255;53.596;9.960;2023-09-07T11:23:04;2.83;;;2.55;;
14342;SDS011;7255;53.596;9.960;2023-09-07T11:25:34;2.75;;;2.53;;
14342;SDS011;7255;53.596;9.960;2023-09-07T11:28:02;3.22;;;2.45;;
14342;SDS011;7255;53.596;9.960;2023-09-07T11:30:28;3.08;;;2.55;;
14342;SDS011;7255;53.596;9.960;2023-09-07T11:33:00;5.35;;;2.97;;
14342;SDS011;7255;53.596;9.960;2023-09-07T11:35:27;2.78;;;2.58;;
14342;SDS011;7255;53.596;9.960;2023-09-07T11:37:54;5.15;;;2.55;;
14342;SDS011;7255;53.596;9.960;2023-09-07T11:40:21;3.92;;;2.75;;
14342;SDS011;7255;53.596;9.960;2023-09-07T11:42:47;4.18;;;2.67;;
14342;SDS011;7255;53.596;9.960;2023-09-07T11:45:14;3.58;;;2.85;;
14342;SDS011;7255;53.596;9.960;2023-09-07T11:47:40;2.85;;;2.55;;
14342;SDS011;7255;53.596;9.960;2023-09-07T11:50:07;2.90;;;2.30;;
14342;SDS011;7255;53.596;9.960;2023-09-07T11:52:33;4.12;;;2.80;;
14342;SDS011;7255;53.596;9.960;2023-09-07T11:55:01;3.30;;;2.80;;
14342;SDS011;7255;53.596;9.960;2023-09-07T11:57:28;3.85;;;3.17;;
14342;SDS011;7255;53.596;9.960;2023-09-07T11:59:54;2.85;;;2.65;;
14342;SDS011;7255;53.596;9.960;2023-09-07T12:02:21;3.90;;;2.80;;
14342;SDS011;7255;53.596;9.960;2023-09-07T12:04:47;2.83;;;2.42;;
14342;SDS011;7255;53.596;9.960;2023-09-07T12:07:14;3.58;;;3.08;;
14342;SDS011;7255;53.596;9.960;2023-09-07T12:09:40;2.37;;;2.17;;
14342;SDS011;7255;53.596;9.960;2023-09-07T12:12:08;2.97;;;2.37;;
14342;SDS011;7255;53.596;9.960;2023-09-07T12:14:35;4.85;;;2.97;;
14342;SDS011;7255;53.596;9.960;2023-09-07T12:17:02;3.25;;;2.42;;
14342;SDS011;7255;53.596;9.960;2023-09-07T12:19:29;5.55;;;3.17;;
14342;SDS011;7255;53.596;9.960;2023-09-07T12:21:55;4.30;;;3.12;;
14342;SDS011;7255;53.596;9.960;2023-09-07T12:24:21;3.40;;;2.90;;
14342;SDS011;7255;53.596;9.960;2023-09-07T12:26:48;3.15;;;2.87;;
14342;SDS011;7255;53.596;9.960;2023-09-07T12:29:16;2.83;;;2.55;;
14342;SDS011;7255;53.596;9.960;2023-09-07T12:31:42;4.97;;;2.92;;
14342;SDS011;7255;53.596;9.960;2023-09-07T12:34:08;3.15;;;2.70;;
14342;SDS011;7255;53.596;9.960;2023-09-07T12:36:34;3.12;;;2.83;;
14342;SDS011;7255;53.596;9.960;2023-09-07T12:39:01;5.40;;;3.12;;
14342;SDS011;7255;53.596;9.960;2023-09-07T12:41:29;4.00;;;3.10;;
14342;SDS011;7255;53.596;9.960;2023-09-07T12:43:55;4.30;;;2.92;;
14342;SDS011;7255;53.596;9.960;2023-09-07T12:46:23;3.33;;;2.90;;
14342;SDS011;7255;53.596;9.960;2023-09-07T12:48:49;3.28;;;2.97;;
14342;SDS011;7255;53.596;9.960;2023-09-07T12:51:16;2.22;;;2.03;;
14342;SDS011;7255;53.596;9.960;2023-09-07T12:53:42;3.62;;;2.33;;
14342;SDS011;7255;53.596;9.960;2023-09-07T12:56:08;3.72;;;2.45;;
14342;SDS011;7255;53.596;9.960;2023-09-07T12:58:35;4.03;;;2.90;;
14342;SDS011;7255;53.596;9.960;2023-09-07T13:01:02;3.10;;;2.40;;
14342;SDS011;7255;53.596;9.960;2023-09-07T13:03:30;2.65;;;2.28;;
14342;SDS011;7255;53.596;9.960;2023-09-07T13:05:56;2.62;;;2.40;;
14342;SDS011;7255;53.596;9.960;2023-09-07T13:08:22;2.85;;;2.55;;
14342;SDS011;7255;53.596;9.960;2023-09-07T13:10:49;2.53;;;2.33;;
14342;SDS011;7255;53.596;9.960;2023-09-07T13:13:15;2.65;;;2.28;;
14342;SDS011;7255;53.596;9.960;2023-09-07T13:15:42;3.28;;;2.60;;
14342;SDS011;7255;53.596;9.960;2023-09-07T13:18:08;3.12;;;2.55;;
14342;SDS011;7255;53.596;9.960;2023-09-07T13:20:36;2.60;;;2.35;;
14342;SDS011;7255;53.596;9.960;2023-09-07T13:23:03;2.60;;;2.40;;
14342;SDS011;7255;53.596;9.960;2023-09-07T13:25:29;3.95;;;3.05;;
14342;SDS011;7255;53.596;9.960;2023-09-07T13:27:56;3.15;;;2.40;;
14342;SDS011;7255;53.596;9.960;2023-09-07T13:30:22;3.03;;;2.50;;
14342;SDS011;7255;53.596;9.960;2023-09-07T13:32:48;2.30;;;2.10;;
14342;SDS011;7255;53.596;9.960;2023-09-07T13:35:15;4.37;;;2.83;;
14342;SDS011;7255;53.596;9.960;2023-09-07T13:37:43;2.67;;;2.40;;
14342;SDS011;7255;53.596;9.960;2023-09-07T13:40:09;4.62;;;2.97;;
14342;SDS011;7255;53.596;9.960;2023-09-07T13:42:36;3.80;;;2.87;;
14342;SDS011;7255;53.596;9.960;2023-09-07T13:45:04;3.90;;;2.75;;
14342;SDS011;7255;53.596;9.960;2023-09-07T13:47:31;3.25;;;2.83;;
14342;SDS011;7255;53.596;9.960;2023-09-07T13:49:57;3.00;;;2.70;;
14342;SDS011;7255;53.596;9.960;2023-09-07T13:52:23;3.12;;;2.45;;
14342;SDS011;7255;53.596;9.960;2023-09-07T13:54:52;3.03;;;2.75;;
14342;SDS011;7255;53.596;9.960;2023-09-07T13:57:18;3.20;;;2.90;;
14342;SDS011;7255;53.596;9.960;2023-09-07T13:59:44;2.42;;;2.22;;
14342;SDS011;7255;53.596;9.960;2023-09-07T14:02:11;2.85;;;2.45;;
14342;SDS011;7255;53.596;9.960;2023-09-07T14:04:37;2.78;;;2.50;;
14342;SDS011;7255;53.596;9.960;2023-09-07T14:07:03;4.62;;;2.72;;
14342;SDS011;7255;53.596;9.960;2023-09-07T14:09:30;2.75;;;2.47;;
14342;SDS011;7255;53.596;9.960;2023-09-07T14:11:57;3.87;;;2.30;;
14342;SDS011;7255;53.596;9.960;2023-09-07T14:14:23;3.47;;;2.70;;
14342;SDS011;7255;53.596;9.960;2023-09-07T14:16:50;3.03;;;2.72;;
14342;SDS011;7255;53.596;9.960;2023-09-07T14:19:21;3.10;;;2.50;;
14342;SDS011;7255;53.596;9.960;2023-09-07T14:21:48;4.65;;;2.65;;
14342;SDS011;7255;53.596;9.960;2023-09-07T14:24:14;3.28;;;2.53;;
14342;SDS011;7255;53.596;9.960;2023-09-07T14:26:40;4.55;;;2.78;;
14342;SDS011;7255;53.596;9.960;2023-09-07T14:29:08;3.58;;;2.58;;
14342;SDS011;7255;53.596;9.960;2023-09-07T14:31:34;2.60;;;2.37;;
14342;SDS011;7255;53.596;9.960;2023-09-07T14:34:00;2.97;;;2.55;;
14342;SDS011;7255;53.596;9.960;2023-09-07T14:36:27;2.62;;;2.33;;
14342;SDS011;7255;53.596;9.960;2023-09-07T14:38:53;2.40;;;2.20;;
14342;SDS011;7255;53.596;9.960;2023-09-07T14:41:19;2.62;;;1.98;;
14342;SDS011;7255;53.596;9.960;2023-09-07T14:43:47;2.80;;;2.40;;
14342;SDS011;7255;53.596;9.960;2023-09-07T14:46:16;3.35;;;2.72;;
14342;SDS011;7255;53.596;9.960;2023-09-07T14:48:43;3.58;;;2.50;;
14342;SDS011;7255;53.596;9.960;2023-09-07T14:51:12;4.93;;;2.20;;
14342;SDS011;7255;53.596;9.960;2023-09-07T14:53:39;3.17;;;2.50;;
14342;SDS011;7255;53.596;9.960;2023-09-07T14:56:05;5.05;;;2.60;;
14342;SDS011;7255;53.596;9.960;2023-09-07T14:58:31;6.57;;;2.30;;
14342;SDS011;7255;53.596;9.960;2023-09-07T15:00:58;2.80;;;2.47;;
14342;SDS011;7255;53.596;9.960;2023-09-07T15:03:25;4.03;;;2.50;;
14342;SDS011;7255;53.596;9.960;2023-09-07T15:05:52;6.97;;;2.50;;